Time;durP1;ratioP1;P1;durP2;ratioP2;P2;SDS_P1;SDS_P2;PMS_P1;PMS_P2;Temp;Humidity;BMP_temperature;BMP_pressure;BME280_temperature;BME280_humidity;BME280_pressure;Samples;Min_cycle;Max_cycle;Signal;HPM_P1;HPM_P2
2023/09/18 00:00:21;;;;;;;1.50;0.90;;;21.90;98.20;;;;;;4932074;29;20633;-81
2023/09/18 00:02:47;;;;;;;1.47;0.83;;;21.90;98.20;;;;;;4945044;28;20997;-80
2023/09/18 00:05:15;;;;;;;1.50;1.00;;;22.00;98.20;;;;;;4928388;29;20488;-80
2023/09/18 00:07:44;;;;;;;1.47;0.90;;;22.00;98.20;;;;;;4948075;28;20557;-81
2023/09/18 00:10:12;;;;;;;1.50;0.90;;;22.10;98.20;;;;;;4947446;28;20486;-81
2023/09/18 00:12:39;;;;;;;2.13;1.93;;;22.10;98.20;;;;;;4962064;28;21030;-80
2023/09/18 00:15:08;;;;;;;1.47;0.90;;;22.10;98.20;;;;;;4951308;28;20482;-81
2023/09/18 00:17:35;;;;;;;1.47;0.90;;;22.10;98.20;;;;;;4942814;28;20950;-81
2023/09/18 00:20:03;;;;;;;1.47;0.90;;;22.10;98.20;;;;;;4951080;28;20495;-79
2023/09/18 00:22:29;;;;;;;1.50;1.20;;;22.00;98.20;;;;;;4941360;28;20500;-80
2023/09/18 00:24:57;;;;;;;1.50;0.90;;;22.10;98.20;;;;;;4937819;29;20471;-80
2023/09/18 00:27:24;;;;;;;1.50;0.90;;;22.10;98.20;;;;;;4937710;28;20534;-79
2023/09/18 00:29:51;;;;;;;1.47;0.80;;;22.10;98.20;;;;;;4941711;28;20479;-81
2023/09/18 00:32:18;;;;;;;1.50;0.90;;;22.00;98.20;;;;;;4933227;28;20877;-81
2023/09/18 00:34:44;;;;;;;1.50;0.90;;;22.00;98.20;;;;;;4941654;28;20460;-81
2023/09/18 00:37:12;;;;;;;1.50;0.90;;;22.00;98.20;;;;;;4933981;28;20483;-82
2023/09/18 00:39:38;;;;;;;1.50;0.90;;;22.00;98.20;;;;;;4935468;28;20785;-81
2023/09/18 00:42:07;;;;;;;1.50;0.90;;;21.90;98.20;;;;;;4925583;28;20487;-81
2023/09/18 00:44:33;;;;;;;1.50;0.90;;;21.90;98.20;;;;;;4930543;29;20469;-81
2023/09/18 00:47:00;;;;;;;1.50;0.90;;;21.90;98.20;;;;;;4931957;28;20491;-79
2023/09/18 00:49:27;;;;;;;1.43;0.90;;;21.90;98.20;;;;;;4935562;28;20479;-79
2023/09/18 00:51:54;;;;;;;1.50;0.90;;;21.90;98.20;;;;;;4932079;28;20479;-80
2023/09/18 00:54:21;;;;;;;1.50;0.90;;;21.90;98.20;;;;;;4938372;28;20468;-79
2023/09/18 00:56:53;;;;;;;1.50;0.90;;;21.90;98.20;;;;;;4932061;28;21019;-81
2023/09/18 00:59:22;;;;;;;1.50;0.90;;;21.90;98.20;;;;;;4946797;28;20463;-78
2023/09/18 01:01:51;;;;;;;1.50;0.90;;;21.90;98.20;;;;;;4933969;28;20845;-80
2023/09/18 01:04:18;;;;;;;1.50;0.90;;;21.90;98.20;;;;;;4940950;28;20507;-80
2023/09/18 01:06:45;;;;;;;1.50;0.90;;;21.90;98.20;;;;;;4932425;28;20494;-81
2023/09/18 01:09:14;;;;;;;1.50;1.00;;;21.90;98.20;;;;;;4943211;28;20475;-80
2023/09/18 01:11:48;;;;;;;1.50;0.90;;;21.90;98.20;;;;;;4930511;28;20820;-81
2023/09/18 01:14:20;;;;;;;1.50;0.90;;;21.90;98.20;;;;;;4936859;28;20473;-80
2023/09/18 01:16:54;;;;;;;1.50;0.90;;;21.90;98.20;;;;;;4925954;28;20801;-80
2023/09/18 01:19:36;;;;;;;1.50;0.90;;;21.90;98.20;;;;;;4935298;29;20471;-81
2023/09/18 01:22:03;;;;;;;1.50;1.10;;;21.90;98.20;;;;;;4913692;28;20578;-80
2023/09/18 01:24:32;;;;;;;1.50;0.90;;;21.90;98.20;;;;;;4937125;29;20993;-80
2023/09/18 01:26:58;;;;;;;1.50;0.90;;;22.00;98.20;;;;;;4935288;28;20490;-81
2023/09/18 01:29:25;;;;;;;1.50;0.90;;;22.00;98.20;;;;;;4943882;28;21017;-79
2023/09/18 01:31:52;;;;;;;1.50;1.00;;;22.00;98.20;;;;;;4944772;28;20474;-79
2023/09/18 01:34:21;;;;;;;1.50;0.90;;;22.00;98.20;;;;;;4958749;28;20474;-77
2023/09/18 01:36:48;;;;;;;1.50;0.90;;;22.00;98.20;;;;;;4956067;28;20490;-77
2023/09/18 01:39:16;;;;;;;1.50;0.90;;;22.00;98.20;;;;;;4968003;28;20847;-78
2023/09/18 01:41:45;;;;;;;1.50;0.90;;;22.00;98.20;;;;;;4954431;28;20478;-77
2023/09/18 01:44:11;;;;;;;1.47;0.90;;;22.00;98.20;;;;;;4966320;28;20477;-79
2023/09/18 01:46:39;;;;;;;1.43;0.90;;;22.10;98.20;;;;;;4956376;28;20504;-76
2023/09/18 01:49:06;;;;;;;1.50;0.90;;;22.10;98.20;;;;;;4970411;28;20471;-78
2023/09/18 01:51:33;;;;;;;1.50;0.90;;;22.10;98.20;;;;;;4950884;28;20552;-77
2023/09/18 01:54:01;;;;;;;1.50;0.90;;;22.10;98.20;;;;;;4962781;28;20474;-78
2023/09/18 01:56:28;;;;;;;1.50;0.90;;;22.10;98.20;;;;;;4956606;28;20493;-78
2023/09/18 01:58:56;;;;;;;1.47;0.90;;;22.10;98.20;;;;;;4966643;28;20467;-77
2023/09/18 02:01:22;;;;;;;1.50;0.90;;;22.10;98.20;;;;;;4949768;28;20512;-77
2023/09/18 02:03:49;;;;;;;1.47;0.90;;;22.00;98.20;;;;;;4970460;28;20474;-79
2023/09/18 02:06:16;;;;;;;2.00;1.63;;;22.00;98.20;;;;;;4947221;28;20478;-77
2023/09/18 02:08:43;;;;;;;1.40;0.90;;;22.00;98.20;;;;;;4958119;28;20466;-79
2023/09/18 02:11:09;;;;;;;1.47;0.90;;;22.00;98.20;;;;;;4944544;28;20503;-77
2023/09/18 02:13:36;;;;;;;1.50;0.90;;;22.00;98.20;;;;;;4966667;28;20813;-77
2023/09/18 02:16:04;;;;;;;1.50;0.90;;;22.00;98.20;;;;;;4952102;28;20467;-78
2023/09/18 02:18:31;;;;;;;1.50;0.90;;;22.00;98.20;;;;;;4973904;28;20944;-80
2023/09/18 02:20:58;;;;;;;1.50;0.90;;;22.00;98.20;;;;;;4947649;28;20482;-79
2023/09/18 02:23:24;;;;;;;1.43;0.90;;;22.00;98.20;;;;;;4968022;28;20466;-77
2023/09/18 02:25:56;;;;;;;1.50;0.90;;;21.90;98.20;;;;;;4949015;28;20493;-79
2023/09/18 02:28:23;;;;;;;1.50;0.90;;;21.90;98.20;;;;;;4977348;28;20472;-79
2023/09/18 02:30:50;;;;;;;1.47;0.90;;;21.90;98.20;;;;;;4950043;28;20851;-78
2023/09/18 02:33:18;;;;;;;1.50;0.90;;;21.90;98.20;;;;;;4971442;28;20473;-78
2023/09/18 02:35:45;;;;;;;1.50;1.10;;;21.90;98.20;;;;;;4963553;28;20478;-80
2023/09/18 02:38:12;;;;;;;1.50;0.93;;;22.00;98.20;;;;;;4949645;28;20847;-79
2023/09/18 02:40:38;;;;;;;1.50;0.90;;;22.00;98.20;;;;;;4953379;28;20909;-78
2023/09/18 02:43:05;;;;;;;1.50;0.90;;;22.00;98.20;;;;;;4964762;28;20913;-78
2023/09/18 02:45:33;;;;;;;1.50;0.90;;;22.00;98.20;;;;;;4961889;28;20466;-78
2023/09/18 02:47:59;;;;;;;1.43;0.90;;;22.00;98.20;;;;;;4952113;28;20482;-77
2023/09/18 02:50:27;;;;;;;1.43;0.90;;;21.90;98.20;;;;;;4948625;28;21132;-78
2023/09/18 02:52:54;;;;;;;1.50;0.90;;;21.90;98.20;;;;;;4931405;28;21136;-78
2023/09/18 02:55:21;;;;;;;1.43;0.90;;;21.90;98.20;;;;;;4943709;29;20470;-77
2023/09/18 02:57:48;;;;;;;1.50;0.90;;;21.80;98.20;;;;;;4947959;28;20495;-77
2023/09/18 03:00:16;;;;;;;1.50;1.10;;;21.80;98.20;;;;;;4960120;28;20538;-78
2023/09/18 03:02:42;;;;;;;1.47;0.90;;;21.70;98.20;;;;;;4969487;28;21085;-78
2023/09/18 03:05:10;;;;;;;1.50;0.90;;;21.70;98.20;;;;;;4963526;28;20466;-78
2023/09/18 03:07:38;;;;;;;1.47;0.90;;;21.60;98.20;;;;;;4970689;28;20867;-77
2023/09/18 03:10:05;;;;;;;1.47;0.90;;;21.70;98.20;;;;;;4953394;28;20483;-78
2023/09/18 03:12:33;;;;;;;1.50;0.90;;;21.60;98.20;;;;;;4962376;28;20567;-78
2023/09/18 03:15:00;;;;;;;1.50;0.90;;;21.60;98.20;;;;;;4957422;28;20466;-77
2023/09/18 03:17:27;;;;;;;1.50;1.00;;;21.60;98.20;;;;;;4955602;28;20486;-77
2023/09/18 03:19:54;;;;;;;1.50;0.90;;;21.60;98.20;;;;;;4950098;28;20554;-77
2023/09/18 03:22:20;;;;;;;1.47;0.90;;;21.60;98.20;;;;;;4933982;28;20482;-77
2023/09/18 03:24:48;;;;;;;1.70;1.10;;;21.70;98.20;;;;;;4948523;29;20464;-79
2023/09/18 03:27:15;;;;;;;1.50;0.90;;;21.60;98.20;;;;;;4952272;28;20486;-77
2023/09/18 03:29:42;;;;;;;1.50;0.90;;;21.70;98.20;;;;;;4954571;28;20462;-76
2023/09/18 03:32:11;;;;;;;1.50;0.90;;;21.60;98.20;;;;;;4962078;28;20480;-79
2023/09/18 03:34:39;;;;;;;1.50;0.90;;;21.60;98.20;;;;;;4964462;28;20493;-77
2023/09/18 03:37:05;;;;;;;1.50;0.90;;;21.60;98.20;;;;;;4963549;28;20478;-77
2023/09/18 03:39:32;;;;;;;1.50;0.90;;;21.60;98.20;;;;;;4969584;28;20469;-76
2023/09/18 03:42:00;;;;;;;1.50;0.90;;;21.50;98.20;;;;;;4943252;28;20545;-78
2023/09/18 03:44:27;;;;;;;1.50;0.90;;;21.50;98.20;;;;;;4954825;28;20481;-82
2023/09/18 03:46:54;;;;;;;1.47;0.90;;;21.50;98.20;;;;;;4952976;28;20481;-78
2023/09/18 03:49:21;;;;;;;1.50;0.90;;;21.40;98.20;;;;;;4971518;28;20479;-76
2023/09/18 03:51:47;;;;;;;1.50;0.90;;;21.40;98.20;;;;;;4949882;28;20490;-78
2023/09/18 03:54:14;;;;;;;1.50;0.90;;;21.40;98.20;;;;;;4955820;28;20478;-78
2023/09/18 03:56:41;;;;;;;1.50;0.90;;;21.40;98.20;;;;;;4939170;28;20483;-77
2023/09/18 03:59:09;;;;;;;1.50;0.90;;;21.40;98.20;;;;;;4947890;29;20538;-78
2023/09/18 04:01:36;;;;;;;1.47;0.90;;;21.40;98.20;;;;;;4941829;28;20488;-77
2023/09/18 04:04:03;;;;;;;1.50;1.10;;;21.40;98.20;;;;;;4950008;28;20554;-78
2023/09/18 04:06:37;;;;;;;1.50;1.00;;;21.40;98.20;;;;;;4945308;28;20536;-78
2023/09/18 04:09:04;;;;;;;1.50;0.90;;;21.40;98.20;;;;;;4953775;28;20467;-77
2023/09/18 04:11:32;;;;;;;1.47;0.90;;;21.40;98.20;;;;;;4942681;28;20473;-76
2023/09/18 04:14:00;;;;;;;1.50;0.90;;;21.40;98.20;;;;;;4965967;28;20476;-77
2023/09/18 04:16:29;;;;;;;1.60;1.10;;;21.40;98.20;;;;;;4952907;28;21016;-76
2023/09/18 04:18:56;;;;;;;1.50;0.90;;;21.40;98.20;;;;;;4964979;28;20477;-77
2023/09/18 04:21:25;;;;;;;1.50;0.90;;;21.40;98.20;;;;;;4954156;28;20519;-76
2023/09/18 04:23:57;;;;;;;1.50;0.90;;;21.30;98.20;;;;;;4970239;28;20954;-76
2023/09/18 04:26:24;;;;;;;1.50;0.90;;;21.30;98.20;;;;;;4954260;28;20492;-79
2023/09/18 04:28:51;;;;;;;1.50;0.90;;;21.30;98.20;;;;;;4957062;28;20458;-77
2023/09/18 04:31:18;;;;;;;1.50;1.00;;;21.30;98.20;;;;;;4943232;28;20482;-78
2023/09/18 04:33:46;;;;;;;1.50;1.20;;;21.20;98.20;;;;;;4956758;28;20467;-78
2023/09/18 04:36:14;;;;;;;1.50;1.00;;;21.30;98.20;;;;;;4951196;28;20644;-78
2023/09/18 04:38:41;;;;;;;1.50;0.90;;;21.30;98.20;;;;;;4963481;28;20478;-77
2023/09/18 04:41:10;;;;;;;1.50;0.90;;;21.30;98.20;;;;;;4949059;28;20490;-77
2023/09/18 04:43:38;;;;;;;1.70;1.60;;;21.20;98.20;;;;;;4968387;28;20521;-76
2023/09/18 04:46:05;;;;;;;1.50;0.90;;;21.20;98.20;;;;;;4946569;28;20485;-77
2023/09/18 04:48:35;;;;;;;1.50;0.90;;;21.20;98.20;;;;;;4967914;28;20501;-77
2023/09/18 04:51:04;;;;;;;2.00;1.67;;;21.20;98.20;;;;;;4947318;28;20579;-79
2023/09/18 04:53:33;;;;;;;1.50;0.90;;;21.10;98.20;;;;;;4974992;28;20470;-78
2023/09/18 04:56:03;;;;;;;1.50;0.90;;;21.10;98.20;;;;;;4948289;28;20518;-78
2023/09/18 04:58:34;;;;;;;1.50;0.90;;;21.10;98.20;;;;;;4970565;28;20462;-78
2023/09/18 05:01:07;;;;;;;1.50;0.90;;;21.10;98.20;;;;;;4946322;28;20492;-76
2023/09/18 05:03:48;;;;;;;1.50;0.90;;;21.10;98.20;;;;;;4966128;28;20502;-79
2023/09/18 05:06:17;;;;;;;1.50;0.90;;;21.10;98.20;;;;;;4949969;28;20464;-79
2023/09/18 05:08:47;;;;;;;1.50;0.90;;;21.10;98.20;;;;;;4960943;28;20482;-77
2023/09/18 05:11:15;;;;;;;1.50;0.90;;;21.10;98.20;;;;;;4940176;28;20568;-77
2023/09/18 05:13:42;;;;;;;1.50;0.90;;;21.10;98.20;;;;;;4942444;29;20620;-79
2023/09/18 05:16:10;;;;;;;1.50;0.90;;;21.20;98.20;;;;;;4930444;28;20541;-78
2023/09/18 05:18:40;;;;;;;1.50;0.93;;;21.20;98.20;;;;;;4943483;29;20491;-78
2023/09/18 05:21:09;;;;;;;1.50;0.90;;;21.20;98.20;;;;;;4935751;28;20475;-77
2023/09/18 05:23:38;;;;;;;1.50;0.90;;;21.20;98.20;;;;;;4955855;28;20467;-79
2023/09/18 05:26:05;;;;;;;1.50;0.90;;;21.20;98.20;;;;;;4929288;28;20890;-78
2023/09/18 05:28:33;;;;;;;1.50;0.90;;;21.20;98.20;;;;;;4958887;28;20492;-77
2023/09/18 05:31:01;;;;;;;3.20;1.83;;;21.20;98.20;;;;;;4949627;28;20584;-77
2023/09/18 05:33:28;;;;;;;1.50;0.90;;;21.20;98.20;;;;;;4977656;28;20493;-77
2023/09/18 05:35:56;;;;;;;1.50;0.90;;;21.20;98.20;;;;;;4965090;28;20501;-75
2023/09/18 05:38:23;;;;;;;1.50;0.90;;;21.20;98.20;;;;;;4968373;28;20463;-77
2023/09/18 05:40:52;;;;;;;1.50;1.00;;;21.30;98.20;;;;;;4941476;28;20487;-78
2023/09/18 05:43:20;;;;;;;1.50;0.90;;;21.30;98.20;;;;;;4956103;28;20477;-77
2023/09/18 05:45:49;;;;;;;1.50;1.00;;;21.30;98.20;;;;;;4941145;28;20463;-78
2023/09/18 05:48:22;;;;;;;1.50;0.90;;;21.30;98.20;;;;;;4963478;28;20563;-78
2023/09/18 05:54:18;;;;;;;1.50;0.90;;;21.30;98.20;;;;;;5252688;23;20533;-79
2023/09/18 05:56:46;;;;;;;1.60;1.30;;;21.30;98.20;;;;;;4840914;29;20805;-79
2023/09/18 06:01:58;;;;;;;1.50;1.10;;;21.20;98.20;;;;;;5079400;23;20476;-79
2023/09/18 06:04:30;;;;;;;1.50;0.90;;;21.20;98.20;;;;;;4991346;28;20470;-78
2023/09/18 06:06:58;;;;;;;1.50;0.90;;;21.20;98.20;;;;;;4982265;28;20879;-79
2023/09/18 06:09:29;;;;;;;1.47;0.90;;;21.20;98.20;;;;;;4987851;28;20485;-79
2023/09/18 06:11:59;;;;;;;1.47;0.90;;;21.20;98.20;;;;;;5009794;23;20479;-79
2023/09/18 06:14:40;;;;;;;1.50;1.00;;;21.20;98.20;;;;;;4948402;29;20483;-79
2023/09/18 06:17:09;;;;;;;1.50;0.90;;;21.20;98.20;;;;;;4936637;29;20685;-77
2023/09/18 06:19:37;;;;;;;1.50;0.90;;;21.20;98.20;;;;;;4943906;29;20471;-78
2023/09/18 06:22:05;;;;;;;1.60;1.20;;;21.20;98.20;;;;;;4928530;28;20476;-78
2023/09/18 06:24:32;;;;;;;1.60;1.00;;;21.20;98.20;;;;;;4954853;28;20562;-80
2023/09/18 06:27:09;;;;;;;4.57;2.20;;;21.20;98.20;;;;;;4938797;28;20502;-78
2023/09/18 06:29:39;;;;;;;1.50;0.90;;;21.20;98.20;;;;;;4947316;29;20466;-78
2023/09/18 06:32:09;;;;;;;1.50;0.90;;;21.20;98.20;;;;;;4925860;29;20494;-77
2023/09/18 06:34:49;;;;;;;1.50;0.90;;;21.30;98.20;;;;;;4941339;29;20612;-77
2023/09/18 06:40:56;;;;;;;1.50;0.90;;;21.30;98.20;;;;;;4937077;28;20487;-77
2023/09/18 06:43:46;;;;;;;1.50;0.90;;;21.30;98.20;;;;;;4932175;29;20557;-77
2023/09/18 06:46:14;;;;;;;1.50;0.90;;;21.40;98.20;;;;;;4925457;28;20475;-76
2023/09/18 06:49:00;;;;;;;1.50;0.90;;;21.40;98.20;;;;;;4944339;28;20502;-75
2023/09/18 06:51:40;;;;;;;1.50;0.90;;;21.40;98.20;;;;;;4921171;28;21062;-77
2023/09/18 06:54:12;;;;;;;1.50;0.90;;;21.50;98.20;;;;;;4936356;28;20483;-77
2023/09/18 06:56:44;;;;;;;1.47;0.90;;;21.50;98.20;;;;;;4919772;28;21028;-76
2023/09/18 06:59:16;;;;;;;1.50;0.90;;;21.50;98.20;;;;;;4933377;28;20992;-76
2023/09/18 07:01:44;;;;;;;1.47;0.90;;;21.60;98.20;;;;;;4926519;28;20479;-76
2023/09/18 07:04:14;;;;;;;1.50;0.90;;;21.60;98.20;;;;;;4951016;28;20496;-76
2023/09/18 07:06:47;;;;;;;1.50;0.90;;;21.60;98.20;;;;;;4939850;28;20490;-76
2023/09/18 07:09:15;;;;;;;1.43;0.90;;;21.70;98.20;;;;;;4942776;28;20581;-76
2023/09/18 07:11:46;;;;;;;1.50;1.00;;;21.70;98.20;;;;;;4976566;23;21117;-76
2023/09/18 07:14:17;;;;;;;1.47;0.90;;;21.70;98.20;;;;;;4956232;28;20477;-76
2023/09/18 07:16:50;;;;;;;1.50;0.90;;;21.80;98.20;;;;;;4942613;28;20955;-76
2023/09/18 07:19:19;;;;;;;1.50;0.90;;;21.90;98.20;;;;;;4953541;28;20467;-76
2023/09/18 07:21:49;;;;;;;1.50;0.90;;;21.90;98.20;;;;;;4946975;28;20513;-77
2023/09/18 07:24:28;;;;;;;1.50;0.90;;;21.90;98.20;;;;;;4955629;28;20556;-76
2023/09/18 07:27:02;;;;;;;1.50;0.90;;;21.90;98.20;;;;;;4945601;28;20474;-76
2023/09/18 07:29:41;;;;;;;1.50;0.90;;;22.00;98.20;;;;;;4958107;28;20474;-76
2023/09/18 07:32:12;;;;;;;1.50;0.90;;;22.00;98.20;;;;;;4956075;28;20485;-76
2023/09/18 07:34:47;;;;;;;1.50;0.90;;;22.10;98.20;;;;;;4958902;28;20471;-76
2023/09/18 07:37:31;;;;;;;1.47;0.90;;;22.20;98.20;;;;;;4956614;28;20492;-77
2023/09/18 07:40:11;;;;;;;1.50;0.90;;;22.20;98.20;;;;;;4951040;28;20490;-76
2023/09/18 07:42:43;;;;;;;1.50;0.90;;;22.30;98.20;;;;;;4948841;28;20613;-76
2023/09/18 07:45:24;;;;;;;1.50;0.90;;;22.30;98.20;;;;;;4948014;28;20479;-76
2023/09/18 07:47:55;;;;;;;1.50;0.90;;;22.30;98.20;;;;;;4946114;28;20478;-76
2023/09/18 07:50:49;;;;;;;1.50;0.90;;;22.40;98.20;;;;;;4952524;28;20506;-76
2023/09/18 07:53:20;;;;;;;1.50;0.90;;;22.40;98.20;;;;;;4937514;28;20478;-76
2023/09/18 07:55:58;;;;;;;1.50;0.90;;;22.50;98.20;;;;;;4947184;28;20471;-76
2023/09/18 07:58:29;;;;;;;1.50;0.90;;;22.50;98.20;;;;;;4959010;28;20965;-77
2023/09/18 08:01:13;;;;;;;1.50;0.90;;;22.60;98.20;;;;;;4944740;28;20919;-76
2023/09/18 08:03:46;;;;;;;1.50;0.90;;;22.70;98.20;;;;;;4962353;28;20466;-76
2023/09/18 08:06:41;;;;;;;1.50;0.90;;;22.70;98.20;;;;;;4941079;28;20594;-76
2023/09/18 08:09:15;;;;;;;1.50;0.90;;;22.70;98.20;;;;;;4958565;28;20573;-77
2023/09/18 08:11:58;;;;;;;1.50;0.90;;;22.70;98.20;;;;;;4796349;28;4480906;-77
2023/09/18 08:14:34;;;;;;;1.50;0.90;;;22.70;98.20;;;;;;4959677;28;20317;-76
2023/09/18 08:17:10;;;;;;;1.50;0.90;;;22.70;98.20;;;;;;4948773;28;20826;-77
2023/09/18 08:19:39;;;;;;;1.50;0.90;;;22.70;98.20;;;;;;4955632;28;20474;-76
2023/09/18 08:22:37;;;;;;;1.50;0.90;;;22.70;98.20;;;;;;4951269;28;20661;-77
2023/09/18 08:25:12;;;;;;;1.47;0.90;;;22.80;98.20;;;;;;4953919;28;20470;-77
2023/09/18 08:27:43;;;;;;;1.50;0.90;;;22.90;98.20;;;;;;4948897;28;21006;-77
2023/09/18 08:30:20;;;;;;;1.50;0.90;;;23.00;98.20;;;;;;4953731;28;20502;-77
2023/09/18 08:32:53;;;;;;;1.50;0.90;;;23.00;98.20;;;;;;4955464;28;20523;-77
2023/09/18 08:35:28;;;;;;;1.50;0.90;;;23.00;98.20;;;;;;4951348;28;20973;-77
2023/09/18 08:38:15;;;;;;;1.50;0.90;;;23.00;98.20;;;;;;4953834;28;21012;-77
2023/09/18 08:40:47;;;;;;;1.50;0.90;;;23.10;98.20;;;;;;4953204;28;20482;-77
2023/09/18 08:43:20;;;;;;;1.50;0.87;;;23.10;98.20;;;;;;4941871;28;20558;-77
2023/09/18 08:45:52;;;;;;;1.50;0.90;;;23.10;98.20;;;;;;4945492;28;20477;-77
2023/09/18 08:48:35;;;;;;;1.50;0.90;;;23.10;98.20;;;;;;4962840;28;21156;-77
2023/09/18 08:51:13;;;;;;;1.50;0.90;;;23.20;98.20;;;;;;4944008;28;20497;-77
2023/09/18 08:53:42;;;;;;;1.50;0.90;;;23.20;98.20;;;;;;4958882;28;20581;-77
2023/09/18 08:56:16;;;;;;;1.50;0.90;;;23.20;98.20;;;;;;4941410;28;20472;-77
2023/09/18 08:58:56;;;;;;;1.47;0.90;;;23.30;98.20;;;;;;4959572;28;20474;-77
2023/09/18 09:01:27;;;;;;;1.50;0.90;;;23.40;98.20;;;;;;4949596;28;20571;-77
2023/09/18 09:03:57;;;;;;;1.47;0.90;;;23.50;98.20;;;;;;4959012;28;20485;-77
2023/09/18 09:06:27;;;;;;;2.33;1.10;;;23.50;98.20;;;;;;4944621;28;20473;-77
2023/09/18 09:08:59;;;;;;;1.50;0.90;;;23.60;98.20;;;;;;4957380;28;20608;-76
2023/09/18 09:11:36;;;;;;;1.50;0.90;;;23.70;98.20;;;;;;4946843;28;20494;-77
2023/09/18 09:14:28;;;;;;;1.50;0.90;;;23.80;98.20;;;;;;4954290;28;20477;-77
2023/09/18 09:17:03;;;;;;;1.50;0.90;;;23.80;98.20;;;;;;4944075;28;20582;-77
2023/09/18 09:19:38;;;;;;;1.50;0.90;;;23.90;98.20;;;;;;4953648;28;20959;-77
2023/09/18 09:22:22;;;;;;;1.50;0.90;;;23.90;98.20;;;;;;4945629;28;20631;-77
2023/09/18 09:24:53;;;;;;;1.50;0.90;;;23.90;98.20;;;;;;4952085;28;21035;-77
2023/09/18 09:27:43;;;;;;;1.47;0.90;;;24.00;98.20;;;;;;4947480;28;20482;-77
2023/09/18 09:30:28;;;;;;;1.50;0.90;;;24.00;98.20;;;;;;4950225;28;20490;-77
2023/09/18 09:32:58;;;;;;;1.50;0.90;;;24.00;98.20;;;;;;4949819;28;20490;-77
2023/09/18 09:38:33;;;;;;;1.50;0.90;;;24.00;98.20;;;;;;4943938;28;20478;-77
2023/09/18 09:41:20;;;;;;;1.50;0.90;;;24.00;98.20;;;;;;4942089;28;20495;-77
2023/09/18 09:43:57;;;;;;;1.47;0.90;;;24.00;98.20;;;;;;4956948;28;20466;-75
2023/09/18 09:46:29;;;;;;;1.50;0.90;;;24.00;98.20;;;;;;4945801;28;20497;-76
2023/09/18 09:49:07;;;;;;;1.50;0.90;;;24.10;98.20;;;;;;4953494;28;20569;-77
2023/09/18 09:51:36;;;;;;;1.80;1.33;;;24.20;98.20;;;;;;4938697;28;20494;-76
2023/09/18 09:54:08;;;;;;;1.50;0.90;;;24.20;98.20;;;;;;4950446;28;20534;-75
2023/09/18 09:56:44;;;;;;;1.47;0.87;;;24.30;98.20;;;;;;4942848;28;20805;-76
2023/09/18 09:59:49;;;;;;;1.50;0.90;;;24.40;98.20;;;;;;4952091;28;20467;-78
2023/09/18 10:02:29;;;;;;;1.50;0.93;;;24.50;98.20;;;;;;4950081;28;20477;-76
2023/09/18 10:04:56;;;;;;;1.47;0.90;;;24.60;98.20;;;;;;4947386;28;21059;-76
2023/09/18 10:07:27;;;;;;;1.50;0.80;;;24.70;98.20;;;;;;4950394;28;20571;-75
2023/09/18 10:09:56;;;;;;;1.50;0.90;;;24.80;98.20;;;;;;4951743;28;20496;-75
2023/09/18 10:12:26;;;;;;;1.50;0.90;;;25.00;98.20;;;;;;4950013;28;20474;-75
2023/09/18 10:15:19;;;;;;;1.50;0.90;;;25.10;98.20;;;;;;4953129;28;20997;-77
2023/09/18 10:18:03;;;;;;;1.50;0.80;;;25.20;98.20;;;;;;4954011;28;20489;-75
2023/09/18 10:20:35;;;;;;;1.50;0.90;;;25.30;98.20;;;;;;4950576;28;20489;-75
2023/09/18 10:23:23;;;;;;;1.50;0.90;;;25.50;98.20;;;;;;4953744;28;20889;-76
2023/09/18 10:25:56;;;;;;;1.50;0.90;;;25.80;97.90;;;;;;4940268;28;20485;-78
2023/09/18 10:28:31;;;;;;;1.47;0.83;;;26.10;96.50;;;;;;4960275;28;20490;-76
2023/09/18 10:30:59;;;;;;;1.50;0.80;;;26.30;96.20;;;;;;4937856;28;20634;-76
2023/09/18 10:33:28;;;;;;;1.50;0.80;;;26.40;95.20;;;;;;4960187;28;20471;-76
2023/09/18 10:36:01;;;;;;;1.50;0.90;;;26.60;94.40;;;;;;4941998;28;20562;-77
2023/09/18 10:38:31;;;;;;;1.50;0.80;;;26.70;94.40;;;;;;4966457;28;20474;-76
2023/09/18 10:41:12;;;;;;;1.47;0.87;;;26.90;93.30;;;;;;4948593;28;20546;-75
2023/09/18 10:44:13;;;;;;;1.50;0.80;;;27.10;92.80;;;;;;4979598;22;20502;-84
2023/09/18 10:46:45;;;;;;;1.50;0.80;;;27.20;92.80;;;;;;4949890;28;20918;-83
2023/09/18 10:49:13;;;;;;;1.50;0.80;;;27.40;93.10;;;;;;4962045;28;20705;-83
2023/09/18 10:51:41;;;;;;;1.50;0.80;;;27.50;92.20;;;;;;4949868;28;20517;-83
2023/09/18 10:54:17;;;;;;;1.50;0.80;;;27.60;91.70;;;;;;4959137;28;20546;-84
2023/09/18 10:56:54;;;;;;;1.50;0.87;;;27.80;93.20;;;;;;4950988;28;20481;-84
2023/09/18 10:59:22;;;;;;;1.50;0.80;;;27.90;91.30;;;;;;4954862;28;20475;-84
2023/09/18 11:01:53;;;;;;;1.50;0.80;;;28.10;89.90;;;;;;4946888;28;21062;-86
2023/09/18 11:04:27;;;;;;;1.47;0.80;;;28.10;89.90;;;;;;4967155;28;20645;-82
2023/09/18 11:07:04;;;;;;;1.50;0.90;;;28.10;89.90;;;;;;4953552;28;20575;-82
2023/09/18 11:10:26;;;;;;;1.50;0.80;;;28.20;89.10;;;;;;4961734;28;20497;-87
2023/09/18 11:24:20;;;;;;;1.50;0.80;;;28.40;87.60;;;;;;4810152;29;20520;-83
2023/09/18 11:27:33;;;;;;;1.50;0.80;;;28.50;87.70;;;;;;4882038;29;20526;-82
2023/09/18 11:32:43;;;;;;;1.50;1.00;;;28.70;87.90;;;;;;5233681;23;20913;-82
2023/09/18 11:35:12;;;;;;;1.47;0.80;;;28.70;86.70;;;;;;4963632;28;20458;-83
2023/09/18 11:38:13;;;;;;;1.50;0.90;;;28.60;88.10;;;;;;4964595;28;20507;-82
2023/09/18 11:40:44;;;;;;;1.47;0.80;;;28.30;87.90;;;;;;4950651;28;21060;-82
2023/09/18 11:43:29;;;;;;;1.50;0.80;;;28.00;88.40;;;;;;4940564;28;20945;-83
2023/09/18 11:45:58;;;;;;;1.50;0.80;;;27.80;89.70;;;;;;4923970;28;20867;-83
2023/09/18 11:48:34;;;;;;;1.43;0.90;;;27.80;90.10;;;;;;4959654;28;20471;-82
2023/09/18 11:51:05;;;;;;;1.47;0.80;;;27.80;90.20;;;;;;4941665;28;20926;-85
2023/09/18 11:53:40;;;;;;;1.47;0.80;;;27.60;90.10;;;;;;4953492;28;20525;-82
2023/09/18 11:56:14;;;;;;;1.47;0.80;;;27.70;90.60;;;;;;4931876;28;20471;-83
2023/09/18 11:58:47;;;;;;;1.50;0.90;;;27.90;88.90;;;;;;4945076;28;20929;-85
2023/09/18 12:01:17;;;;;;;1.47;0.80;;;28.00;89.50;;;;;;4930483;28;21154;-82
2023/09/18 12:03:47;;;;;;;1.43;0.80;;;27.90;89.80;;;;;;4943410;28;20560;-82
2023/09/18 12:06:15;;;;;;;1.50;0.90;;;27.80;88.00;;;;;;4927892;28;20505;-82
2023/09/18 12:08:44;;;;;;;1.43;0.80;;;27.70;88.20;;;;;;4946352;28;20604;-82
2023/09/18 12:11:16;;;;;;;1.50;0.90;;;27.80;88.60;;;;;;4930773;28;20866;-81
2023/09/18 12:13:48;;;;;;;1.47;0.90;;;27.80;88.30;;;;;;4947248;28;20554;-83
2023/09/18 12:16:29;;;;;;;1.43;0.80;;;28.00;88.90;;;;;;4922958;28;20499;-83
2023/09/18 12:19:01;;;;;;;1.47;0.90;;;27.90;87.40;;;;;;4925212;29;20482;-82
2023/09/18 12:21:34;;;;;;;1.43;0.80;;;27.70;86.90;;;;;;4911692;29;20529;-83
2023/09/18 12:27:33;;;;;;;1.43;0.80;;;27.10;88.20;;;;;;4909426;29;21087;-84
2023/09/18 12:30:06;;;;;;;1.50;0.80;;;26.90;88.20;;;;;;4913125;29;20920;-81
2023/09/18 12:32:35;;;;;;;1.43;0.80;;;26.70;89.10;;;;;;4932664;28;20490;-83
2023/09/18 12:35:06;;;;;;;1.47;0.80;;;26.70;90.70;;;;;;4934833;29;20481;-82
2023/09/18 12:37:34;;;;;;;1.40;0.90;;;27.00;89.40;;;;;;4938947;28;21036;-84
2023/09/18 12:40:01;;;;;;;1.47;0.80;;;27.20;88.60;;;;;;4933665;28;20506;-83
2023/09/18 12:42:29;;;;;;;1.47;0.90;;;27.50;88.50;;;;;;4928761;28;20492;-83
2023/09/18 12:44:57;;;;;;;1.47;0.80;;;27.70;86.00;;;;;;4912967;29;20468;-82
2023/09/18 12:47:25;;;;;;;1.43;0.80;;;27.80;84.10;;;;;;4930996;28;20486;-82
2023/09/18 12:49:52;;;;;;;1.40;0.80;;;27.70;84.70;;;;;;4936558;28;20522;-84
2023/09/18 12:52:28;;;;;;;1.47;0.80;;;27.50;84.40;;;;;;4933526;28;20478;-85
2023/09/18 12:54:57;;;;;;;1.40;0.90;;;27.30;86.70;;;;;;4942630;28;20473;-83
2023/09/18 12:57:30;;;;;;;1.47;0.80;;;27.30;87.30;;;;;;4934654;28;20497;-83
2023/09/18 12:59:58;;;;;;;1.43;0.80;;;27.30;87.40;;;;;;4939975;29;20833;-83
2023/09/18 13:02:46;;;;;;;1.40;0.80;;;27.40;87.10;;;;;;4937698;28;20573;-84
2023/09/18 13:05:14;;;;;;;1.47;0.80;;;27.40;87.30;;;;;;4888670;29;21660;-82
2023/09/18 13:07:54;;;;;;;1.43;0.80;;;27.40;85.70;;;;;;4930024;28;20490;-83
2023/09/18 13:11:02;;;;;;;1.50;0.90;;;27.50;87.70;;;;;;4942430;29;20487;-82
2023/09/18 13:13:32;;;;;;;1.50;0.90;;;27.90;86.80;;;;;;4866212;29;20549;-83
2023/09/18 13:16:04;;;;;;;1.50;0.80;;;28.20;85.30;;;;;;4932910;28;20562;-80
2023/09/18 13:18:31;;;;;;;1.40;0.80;;;28.50;84.10;;;;;;4950484;28;20472;-79
2023/09/18 13:21:00;;;;;;;1.43;0.80;;;28.70;82.30;;;;;;4930792;28;20483;-82
2023/09/18 13:24:05;;;;;;;1.43;0.90;;;28.70;81.70;;;;;;4947088;28;20939;-82
2023/09/18 13:26:34;;;;;;;1.47;0.80;;;28.70;81.40;;;;;;4923124;28;20497;-82
2023/09/18 13:29:01;;;;;;;1.40;0.80;;;28.60;82.00;;;;;;4923910;29;20476;-82
2023/09/18 13:31:31;;;;;;;1.43;0.80;;;28.80;82.50;;;;;;4912840;28;20495;-83
2023/09/18 13:34:00;;;;;;;1.43;0.80;;;28.80;81.70;;;;;;4928983;29;20469;-82
2023/09/18 13:36:51;;;;;;;1.70;1.10;;;29.00;82.20;;;;;;4923017;28;20489;-81
2023/09/18 13:39:26;;;;;;;1.50;0.80;;;29.10;80.00;;;;;;4932463;29;20467;-84
2023/09/18 13:41:58;;;;;;;1.43;0.80;;;29.20;78.00;;;;;;4934641;28;20492;-82